Hathaway Pines, CA (95233)

9:37 AM PST on December 05, 2016 (GMT -0800)
forest meadows | | Change Station

Elev 3327 ft 38.17 °N, 120.40 °W | Updated 4 seconds ago

Clear
Clear
50.4 °F
Feels Like 50.4 °F
N
0.0
Wind Variable Wind from SW
Gusts 0.0 mph

Today
High -- | Low -- °F
--% Chance of Precip.
Yesterday
High -- | Low -- °F
Precip. -- in
Pressure 30.11 in
Visibility 10.0 miles
Clouds Clear
Dew Point 34 °F
Humidity 54%
Rainfall in
Snow Depth Not available.
7:03 AM 4:41 PM
Waxing Crescent, 33% visible
METAR KO22 051715Z AUTO 30003KT 10SM CLR 09/01 A3011 RMK AO1
Pressure 30.11 in
Visibility 10.0 miles
Clouds Clear
Dew Point 34 °F
Humidity 54%
Rainfall in
Snow Depth Not available.
7:03 AM 4:41 PM
Waxing Crescent, 33% visible
METAR KO22 051715Z AUTO 30003KT 10SM CLR 09/01 A3011 RMK AO1

10-Day Weather Forecast

Almanac

Astronomy

Dec. 05, 2016 Rise Set
Actual Time
Civil Twilight
Nautical Twilight
Astronomical Twilight
Moon
Length of Visible Light
Length of Day
Tomorrow will be .
, % of the Moon is Illuminated

Today's Extremes

State Highs State Lows

Community

WunderPhotos

Upload Photos

1,955,844 photos uploaded!

WunderBlog® & News

Nearby

Air Quality

  Air Quality AQ Index Pollutant
Not available.

Snow Depth

Station Depth Elevation

Earthquake Activity

City Distance Mag. Time & Date
Minimum magnitude displayed is 2.5.

Coastal Water Temperatures

Place Temperature

Stations

Nearby Weather Stations

Station Location Temp. Windchill Dew Point Humidity Wind Precip. Elev Updated Type
                   

Watches & Warnings

There are currently no watches in effect.